createdAt,value
2022-11-22T00:01:18.867Z,4.03
2022-11-22T00:03:47.528Z,5.17
2022-11-22T00:06:15.707Z,4.27
2022-11-22T00:08:45.395Z,3.80
2022-11-22T00:11:13.369Z,5.27
2022-11-22T00:13:41.515Z,4.87
2022-11-22T00:16:09.411Z,4.50
2022-11-22T00:18:39.515Z,4.50
2022-11-22T00:21:08.577Z,4.87
2022-11-22T00:23:39.388Z,4.20
2022-11-22T00:26:12.503Z,4.27
2022-11-22T00:28:41.015Z,3.83
2022-11-22T00:31:10.078Z,4.53
2022-11-22T00:33:37.704Z,4.67
2022-11-22T00:36:06.552Z,3.70
2022-11-22T00:38:34.214Z,4.53
2022-11-22T00:41:02.085Z,4.53
2022-11-22T00:43:31.561Z,4.73
2022-11-22T00:46:00.680Z,4.00
2022-11-22T00:48:28.699Z,4.00
2022-11-22T00:50:56.796Z,4.80
2022-11-22T00:53:24.494Z,4.30
2022-11-22T00:55:52.567Z,4.23
2022-11-22T00:58:20.789Z,4.03
2022-11-22T01:00:55.061Z,4.67
2022-11-22T01:03:24.712Z,4.83
2022-11-22T01:05:52.835Z,5.20
2022-11-22T01:08:20.509Z,5.07
2022-11-22T01:10:48.664Z,4.80
2022-11-22T01:13:16.365Z,4.70
2022-11-22T01:15:44.710Z,3.97
2022-11-22T01:18:14.126Z,3.43
2022-11-22T01:20:42.612Z,4.20
2022-11-22T01:23:10.686Z,5.07
2022-11-22T01:25:38.437Z,6.13
2022-11-22T01:28:06.725Z,4.93
2022-11-22T01:30:34.467Z,5.40
2022-11-22T01:33:03.169Z,4.83
2022-11-22T01:35:32.556Z,5.47
2022-11-22T01:38:00.241Z,5.40
2022-11-22T01:40:28.146Z,5.50
2022-11-22T01:42:57.945Z,5.07
2022-11-22T01:45:45.178Z,5.17
2022-11-22T01:48:32.548Z,4.70
2022-11-22T01:51:06.997Z,6.27
2022-11-22T01:53:38.065Z,4.30
2022-11-22T01:56:11.029Z,4.00
2022-11-22T01:58:40.730Z,4.90
2022-11-22T02:01:09.951Z,4.43
2022-11-22T02:03:41.568Z,5.83
2022-11-22T02:06:11.633Z,4.80
2022-11-22T02:08:46.135Z,5.20
2022-11-22T02:11:13.816Z,5.20
2022-11-22T02:13:44.845Z,4.50
2022-11-22T02:16:13.395Z,5.20
2022-11-22T02:18:41.876Z,4.77
2022-11-22T02:21:11.615Z,5.40
2022-11-22T02:23:52.776Z,4.83
2022-11-22T02:26:22.118Z,5.23
2022-11-22T02:28:51.812Z,4.87
2022-11-22T02:31:40.764Z,4.33
2022-11-22T02:34:08.977Z,4.67
2022-11-22T02:36:40.943Z,4.50
2022-11-22T02:39:10.947Z,4.37
2022-11-22T02:41:40.620Z,5.30
2022-11-22T02:44:10.492Z,5.27
2022-11-22T02:46:48.518Z,5.27
2022-11-22T02:49:18.824Z,4.30
2022-11-22T02:51:47.892Z,4.63
2022-11-22T02:54:16.331Z,4.33
2022-11-22T02:56:46.093Z,3.83
2022-11-22T02:59:13.694Z,3.50
2022-11-22T03:01:42.235Z,3.53
2022-11-22T03:04:09.935Z,3.30
2022-11-22T03:06:38.297Z,3.60
2022-11-22T03:09:06.413Z,4.67
2022-11-22T03:11:34.444Z,3.77
2022-11-22T03:14:03.819Z,2.77
2022-11-22T03:16:32.184Z,3.20
2022-11-22T03:18:59.842Z,3.47
2022-11-22T03:21:27.963Z,4.20
2022-11-22T03:23:55.783Z,2.87
2022-11-22T03:26:23.409Z,3.37
2022-11-22T03:28:51.045Z,3.23
2022-11-22T03:31:20.213Z,3.87
2022-11-22T03:33:48.255Z,3.43
2022-11-22T03:36:16.033Z,2.80
2022-11-22T03:38:44.665Z,2.77
2022-11-22T03:41:12.486Z,3.40
2022-11-22T03:43:40.244Z,3.07
2022-11-22T03:46:08.263Z,3.23
2022-11-22T03:48:37.606Z,2.70
2022-11-22T03:51:06.305Z,2.97
2022-11-22T03:53:34.590Z,2.73
2022-11-22T03:56:02.467Z,2.73
2022-11-22T03:58:30.764Z,3.43
2022-11-22T04:00:58.840Z,3.27
2022-11-22T04:03:29.332Z,3.40
2022-11-22T04:05:58.684Z,3.73
2022-11-22T04:08:26.502Z,3.53
2022-11-22T04:10:54.697Z,3.57
2022-11-22T04:13:22.402Z,3.57
2022-11-22T04:15:49.344Z,2.60
2022-11-22T04:18:16.944Z,2.90
2022-11-22T04:21:03.021Z,3.03
2022-11-22T04:23:34.317Z,3.00
2022-11-22T04:26:02.061Z,2.87
2022-11-22T04:28:53.962Z,2.47
2022-11-22T04:31:35.496Z,2.60
2022-11-22T04:34:03.534Z,2.30
2022-11-22T04:36:31.124Z,1.90
2022-11-22T04:39:00.076Z,3.07
2022-11-22T04:41:27.698Z,1.97
2022-11-22T04:44:13.524Z,2.60
2022-11-22T04:46:41.166Z,2.07
2022-11-22T04:49:09.170Z,3.00
2022-11-22T04:51:54.957Z,2.90
2022-11-22T04:54:23.943Z,2.57
2022-11-22T04:56:51.696Z,2.50
2022-11-22T04:59:19.548Z,2.90
2022-11-22T05:01:47.760Z,2.80
2022-11-22T05:04:15.759Z,2.70
2022-11-22T05:06:43.759Z,2.90
2022-11-22T05:09:11.354Z,3.07
2022-11-22T05:11:40.841Z,3.03
2022-11-22T05:14:08.461Z,2.90
2022-11-22T05:16:36.129Z,2.70
2022-11-22T05:19:04.464Z,3.00
2022-11-22T05:21:33.273Z,2.77
2022-11-22T05:24:00.432Z,3.00
2022-11-22T05:26:29.996Z,2.70
2022-11-22T05:29:00.589Z,3.27
2022-11-22T05:31:28.965Z,3.50
2022-11-22T05:33:58.068Z,2.30
2022-11-22T05:36:26.459Z,2.63
2022-11-22T05:38:56.005Z,3.50
2022-11-22T05:41:23.731Z,2.47
2022-11-22T05:43:51.685Z,2.33
2022-11-22T05:46:25.087Z,2.70
2022-11-22T05:48:55.001Z,2.10
2022-11-22T05:51:26.982Z,2.27
2022-11-22T05:53:59.411Z,2.60
2022-11-22T05:56:27.121Z,2.17
2022-11-22T05:58:54.860Z,2.20
2022-11-22T06:01:25.188Z,2.27
2022-11-22T06:03:54.151Z,2.93
2022-11-22T06:06:22.340Z,2.50
2022-11-22T06:08:51.201Z,3.10
2022-11-22T06:11:21.151Z,2.90
2022-11-22T06:13:51.860Z,2.67
2022-11-22T06:16:21.297Z,3.03
2022-11-22T06:18:51.238Z,3.03
2022-11-22T06:21:20.723Z,2.70
2022-11-22T06:23:48.410Z,2.37
2022-11-22T06:26:18.838Z,2.80
2022-11-22T06:28:48.802Z,2.93
2022-11-22T06:31:18.545Z,3.30
2022-11-22T06:33:46.828Z,2.87
2022-11-22T06:36:17.827Z,2.80
2022-11-22T06:38:46.566Z,2.77
2022-11-22T06:41:15.651Z,2.57
2022-11-22T06:43:48.706Z,3.57
2022-11-22T06:46:18.706Z,2.80
2022-11-22T06:48:47.087Z,3.20
2022-11-22T06:51:19.132Z,3.50
2022-11-22T06:53:48.880Z,3.07
2022-11-22T06:56:18.675Z,2.40
2022-11-22T06:58:47.657Z,2.63
2022-11-22T07:01:17.215Z,2.80
2022-11-22T07:03:45.662Z,3.10
2022-11-22T07:06:15.230Z,2.80
2022-11-22T07:08:44.502Z,3.87
2022-11-22T07:11:14.329Z,3.97
2022-11-22T07:13:43.117Z,3.80
2022-11-22T07:16:13.021Z,19.17
2022-11-22T07:18:41.019Z,9.93
2022-11-22T07:21:13.146Z,6.93
2022-11-22T07:23:42.410Z,6.23
2022-11-22T07:26:12.701Z,5.40
2022-11-22T07:28:40.401Z,7.33
2022-11-22T07:31:10.656Z,7.67
2022-11-22T07:33:38.657Z,7.17
2022-11-22T07:36:07.529Z,6.37
2022-11-22T07:38:36.338Z,5.47
2022-11-22T07:41:05.194Z,5.47
2022-11-22T07:43:34.685Z,4.50
2022-11-22T07:46:03.768Z,4.63
2022-11-22T07:48:31.619Z,4.67
2022-11-22T07:51:05.334Z,4.13
2022-11-22T07:53:33.314Z,4.40
2022-11-22T07:56:03.891Z,3.80
2022-11-22T07:58:31.784Z,4.27
2022-11-22T08:01:06.327Z,3.60
2022-11-22T08:03:34.085Z,4.00
2022-11-22T08:06:02.439Z,4.10
2022-11-22T08:08:30.258Z,4.20
2022-11-22T08:10:57.973Z,3.60
2022-11-22T08:13:26.188Z,4.23
2022-11-22T08:15:57.540Z,8.33
2022-11-22T08:18:28.857Z,10.67
2022-11-22T08:21:03.447Z,8.80
2022-11-22T08:23:31.758Z,10.43
2022-11-22T08:26:00.070Z,11.10
2022-11-22T08:28:27.747Z,12.60
2022-11-22T08:31:01.876Z,12.23
2022-11-22T08:33:30.871Z,8.77
2022-11-22T08:35:58.497Z,7.93
2022-11-22T08:38:26.198Z,8.30
2022-11-22T08:40:54.873Z,7.67
2022-11-22T08:43:22.524Z,6.33
2022-11-22T08:45:55.711Z,7.67
2022-11-22T08:48:23.336Z,6.77
2022-11-22T08:50:54.528Z,7.17
2022-11-22T08:53:23.009Z,6.37
2022-11-22T08:55:51.097Z,6.17
2022-11-22T08:58:19.907Z,5.07
2022-11-22T09:00:47.650Z,5.90
2022-11-22T09:03:15.605Z,6.03
2022-11-22T09:08:36.156Z,5.57
2022-11-22T09:11:08.634Z,4.67
2022-11-22T09:13:36.289Z,4.53
2022-11-22T09:16:04.743Z,4.80
2022-11-22T09:18:33.340Z,5.07
2022-11-22T09:21:01.087Z,5.20
2022-11-22T09:23:30.591Z,4.80
2022-11-22T09:26:01.460Z,5.20
2022-11-22T09:28:29.401Z,4.47
2022-11-22T09:31:01.625Z,4.90
2022-11-22T09:33:29.541Z,4.03
2022-11-22T09:36:01.470Z,4.30
2022-11-22T09:38:29.838Z,4.80
2022-11-22T09:40:59.117Z,5.50
2022-11-22T09:43:41.254Z,4.80
2022-11-22T09:46:33.279Z,4.57
2022-11-22T09:49:24.526Z,5.50
2022-11-22T09:51:58.273Z,5.67
2022-11-22T09:54:31.658Z,4.40
2022-11-22T09:57:02.717Z,4.13
2022-11-22T09:59:35.891Z,3.60
2022-11-22T10:02:18.103Z,4.00
2022-11-22T10:04:52.943Z,2.70
2022-11-22T10:07:27.869Z,3.27
2022-11-22T10:10:00.689Z,3.47
2022-11-22T10:12:36.875Z,2.97
2022-11-22T10:15:14.848Z,2.60
2022-11-22T10:17:53.995Z,2.33
2022-11-22T10:20:23.902Z,2.63
2022-11-22T10:22:52.231Z,2.20
2022-11-22T10:25:22.736Z,2.03
2022-11-22T10:27:57.645Z,1.70
2022-11-22T10:30:35.798Z,1.80
2022-11-22T10:33:14.597Z,1.53
2022-11-22T10:36:03.795Z,1.37
2022-11-22T10:38:47.059Z,2.10
2022-11-22T10:41:28.223Z,1.87
2022-11-22T10:44:11.601Z,1.90
2022-11-22T10:46:52.263Z,1.13
2022-11-22T10:49:32.733Z,1.23
2022-11-22T10:52:07.745Z,1.60
2022-11-22T10:54:43.911Z,2.03
2022-11-22T10:57:18.818Z,1.47
2022-11-22T10:59:59.498Z,1.40
2022-11-22T11:02:43.997Z,1.30
2022-11-22T11:05:19.462Z,1.80
2022-11-22T11:07:56.571Z,1.53
2022-11-22T11:10:34.957Z,1.50
2022-11-22T11:13:06.748Z,1.57
2022-11-22T11:15:39.121Z,2.20
2022-11-22T11:18:16.887Z,1.40
2022-11-22T11:20:47.835Z,1.10
2022-11-22T11:23:16.494Z,1.53
2022-11-22T11:25:45.888Z,1.60
2022-11-22T11:28:20.156Z,1.20
2022-11-22T11:30:50.243Z,1.10
2022-11-22T11:33:23.716Z,1.57
2022-11-22T11:35:54.950Z,1.40
2022-11-22T11:38:31.961Z,1.10
2022-11-22T11:41:17.111Z,1.37
2022-11-22T11:43:46.363Z,1.57
2022-11-22T11:46:18.865Z,1.10
2022-11-22T11:48:49.308Z,1.20
2022-11-22T11:51:22.481Z,1.30
2022-11-22T11:54:01.320Z,1.10
2022-11-22T11:56:35.518Z,1.40
2022-11-22T11:59:09.402Z,1.33
2022-11-22T12:01:39.158Z,1.40
2022-11-22T12:04:30.882Z,1.50
2022-11-22T12:07:19.026Z,1.30
2022-11-22T12:09:49.376Z,1.03
2022-11-22T12:12:32.482Z,1.30
2022-11-22T12:15:12.466Z,1.27
2022-11-22T12:17:50.037Z,0.80
2022-11-22T12:20:23.749Z,1.10
2022-11-22T12:23:04.878Z,1.30
2022-11-22T12:25:36.604Z,1.60
2022-11-22T12:28:13.860Z,1.20
2022-11-22T12:30:45.570Z,1.10
2022-11-22T12:33:22.935Z,1.13
2022-11-22T12:35:55.365Z,1.47
2022-11-22T12:38:27.869Z,1.07
2022-11-22T12:40:59.247Z,1.20
2022-11-22T12:43:31.802Z,1.10
2022-11-22T12:46:05.656Z,1.13
2022-11-22T12:48:41.486Z,1.77
2022-11-22T12:51:20.009Z,1.40
2022-11-22T12:53:49.120Z,1.33
2022-11-22T12:56:27.272Z,1.00
2022-11-22T12:59:05.240Z,0.97
2022-11-22T13:01:40.490Z,1.50
2022-11-22T13:04:19.481Z,1.13
2022-11-22T13:06:59.049Z,1.07
2022-11-22T13:09:31.550Z,2.17
2022-11-22T13:12:02.297Z,1.30
2022-11-22T13:14:35.187Z,1.00
2022-11-22T13:17:08.374Z,1.00
2022-11-22T13:19:46.447Z,0.90
2022-11-22T13:22:23.065Z,1.30
2022-11-22T13:25:15.007Z,1.20
2022-11-22T13:27:46.033Z,0.73
2022-11-22T13:30:21.233Z,0.90
2022-11-22T13:32:52.397Z,0.97
2022-11-22T13:35:29.421Z,1.03
2022-11-22T13:38:02.548Z,1.30
2022-11-22T13:40:35.425Z,0.77
2022-11-22T13:43:34.931Z,1.00
2022-11-22T13:46:04.377Z,0.73
2022-11-22T13:49:09.549Z,0.93
2022-11-22T13:51:57.545Z,0.90
2022-11-22T13:54:43.180Z,1.00
2022-11-22T13:57:31.445Z,0.67
2022-11-22T14:00:48.447Z,0.97
2022-11-22T14:03:29.357Z,0.70
2022-11-22T14:05:58.982Z,1.03
2022-11-22T14:08:36.290Z,1.10
2022-11-22T14:11:26.398Z,1.00
2022-11-22T14:14:01.412Z,1.10
2022-11-22T14:16:44.764Z,0.90
2022-11-22T14:19:28.597Z,1.00
2022-11-22T14:22:23.794Z,1.00
2022-11-22T14:25:05.860Z,0.70
2022-11-22T14:27:44.697Z,1.00
2022-11-22T14:30:19.683Z,0.87
2022-11-22T14:33:03.496Z,0.80
2022-11-22T14:35:37.017Z,0.80
2022-11-22T14:38:32.577Z,1.10
2022-11-22T14:41:43.277Z,1.07
2022-11-22T14:44:17.556Z,1.30
2022-11-22T14:46:54.392Z,1.10
2022-11-22T14:49:32.644Z,1.00
2022-11-22T14:52:01.638Z,1.17
2022-11-22T14:54:38.752Z,1.57
2022-11-22T14:57:09.420Z,1.10
2022-11-22T14:59:58.088Z,1.30
2022-11-22T15:03:07.507Z,1.00
2022-11-22T15:09:12.948Z,2.00
2022-11-22T15:09:21.748Z,1.20
2022-11-22T15:12:11.019Z,1.20
2022-11-22T15:59:11.845Z,0.90
2022-11-22T16:01:44.426Z,0.90
2022-11-22T16:04:22.979Z,1.07
2022-11-22T16:06:52.733Z,0.93
2022-11-22T16:09:29.873Z,1.87
2022-11-22T16:12:02.214Z,1.40
2022-11-22T16:14:42.618Z,1.40
2022-11-22T16:17:32.988Z,1.00
2022-11-22T16:20:27.953Z,0.93
2022-11-22T16:23:26.502Z,2.17
2022-11-22T16:25:59.009Z,2.73
2022-11-22T16:28:32.569Z,1.07
2022-11-22T16:31:02.594Z,1.20
2022-11-22T16:33:32.232Z,1.07
2022-11-22T16:36:02.146Z,1.30
2022-11-22T16:38:30.622Z,1.37
2022-11-22T16:41:00.138Z,1.17
2022-11-22T16:43:34.327Z,1.07
2022-11-22T16:46:02.998Z,1.77
2022-11-22T16:48:32.918Z,1.60
2022-11-22T16:51:05.045Z,1.40
2022-11-22T16:53:39.834Z,1.73
2022-11-22T16:56:10.348Z,1.47
2022-11-22T16:58:38.007Z,1.87
2022-11-22T17:01:06.125Z,1.97
2022-11-22T17:03:38.029Z,2.00
2022-11-22T17:06:05.787Z,1.67
2022-11-22T17:08:35.243Z,1.80
2022-11-22T17:11:03.309Z,2.20
2022-11-22T17:13:32.349Z,2.10
2022-11-22T17:15:59.975Z,1.73
2022-11-22T17:18:27.741Z,2.63
2022-11-22T17:20:55.633Z,2.37
2022-11-22T17:23:29.633Z,2.20
2022-11-22T17:25:57.359Z,1.90
2022-11-22T17:28:25.387Z,2.40
2022-11-22T17:30:54.915Z,1.77
2022-11-22T17:33:23.049Z,2.10
2022-11-22T17:35:51.119Z,1.33
2022-11-22T17:38:18.850Z,1.63
2022-11-22T17:40:47.147Z,1.70
2022-11-22T17:43:14.783Z,1.80
2022-11-22T17:45:45.526Z,1.67
2022-11-22T17:48:17.355Z,1.67
2022-11-22T17:50:45.586Z,1.30
2022-11-22T17:53:13.242Z,1.50
2022-11-22T17:56:08.964Z,1.13
2022-11-22T17:58:28.783Z,1.30
2022-11-22T18:01:03.433Z,1.77
2022-11-22T18:03:32.928Z,0.87
2022-11-22T18:06:01.139Z,1.13
2022-11-22T18:08:29.745Z,1.50
2022-11-22T18:10:59.645Z,1.40
2022-11-22T18:13:28.477Z,1.23
2022-11-22T18:16:03.006Z,1.83
2022-11-22T18:18:55.696Z,1.30
2022-11-22T18:21:20.815Z,1.40
2022-11-22T18:23:48.471Z,2.13
2022-11-22T18:26:38.169Z,2.03
2022-11-22T18:31:52.875Z,2.00
2022-11-22T18:34:22.856Z,2.20
2022-11-22T18:36:56.359Z,1.77
2022-11-22T18:39:27.567Z,3.57
2022-11-22T18:41:55.572Z,1.87
2022-11-22T18:44:23.414Z,1.23
2022-11-22T18:46:51.086Z,1.60
2022-11-22T18:49:18.792Z,1.40
2022-11-22T18:51:47.753Z,1.77
2022-11-22T18:54:16.015Z,1.83
2022-11-22T18:56:43.682Z,1.53
2022-11-22T18:59:12.382Z,1.60
2022-11-22T19:01:41.058Z,1.20
2022-11-22T19:04:09.018Z,0.97
2022-11-22T19:06:36.591Z,1.63
2022-11-22T19:09:07.001Z,1.90
2022-11-22T19:11:35.310Z,1.27
2022-11-22T19:14:03.237Z,1.33
2022-11-22T19:16:31.883Z,1.47
2022-11-22T19:19:00.236Z,1.80
2022-11-22T19:21:29.731Z,2.10
2022-11-22T19:23:58.287Z,2.73
2022-11-22T19:26:28.932Z,1.50
2022-11-22T19:28:58.005Z,1.90
2022-11-22T19:31:31.265Z,2.90
2022-11-22T19:33:59.598Z,2.70
2022-11-22T19:36:33.305Z,1.57
2022-11-22T19:39:02.240Z,2.50
2022-11-22T19:41:31.981Z,2.27
2022-11-22T19:43:59.894Z,1.50
2022-11-22T19:46:27.599Z,2.13
2022-11-22T19:48:57.386Z,1.57
2022-11-22T19:51:26.588Z,2.00
2022-11-22T19:53:55.356Z,1.83
2022-11-22T19:56:23.237Z,2.07
2022-11-22T19:58:54.002Z,1.60
2022-11-22T20:01:23.359Z,1.60
2022-11-22T20:03:53.583Z,2.63
2022-11-22T20:06:21.700Z,4.70
2022-11-22T20:08:49.793Z,2.70
2022-11-22T20:11:19.933Z,2.20
2022-11-22T20:13:50.013Z,2.00
2022-11-22T20:16:22.062Z,3.03
2022-11-22T20:18:53.491Z,4.70
2022-11-22T20:21:22.525Z,3.10
2022-11-22T20:23:50.558Z,3.07
2022-11-22T20:26:20.293Z,3.57
2022-11-22T20:28:48.796Z,3.30
2022-11-22T20:31:19.808Z,1.77
2022-11-22T20:33:50.170Z,2.77
2022-11-22T20:36:19.892Z,3.60
2022-11-22T20:38:49.723Z,2.47
2022-11-22T20:41:19.887Z,2.53
2022-11-22T20:43:49.343Z,2.77
2022-11-22T20:46:20.523Z,2.40
2022-11-22T20:48:50.010Z,2.00
2022-11-22T20:51:19.761Z,3.87
2022-11-22T20:53:48.042Z,2.57
2022-11-22T20:56:17.356Z,3.07
2022-11-22T20:58:46.261Z,2.50
2022-11-22T21:01:16.224Z,2.57
2022-11-22T21:03:46.580Z,2.87
2022-11-22T21:06:16.087Z,2.80
2022-11-22T21:08:45.182Z,3.30
2022-11-22T21:11:14.516Z,2.63
2022-11-22T21:13:43.167Z,2.50
2022-11-22T21:16:22.716Z,2.77
2022-11-22T21:18:54.319Z,2.70
2022-11-22T21:21:24.192Z,2.47
2022-11-22T21:23:53.390Z,2.50
2022-11-22T21:26:22.335Z,2.10
2022-11-22T21:28:51.007Z,2.40
2022-11-22T21:31:18.907Z,2.53
2022-11-22T21:33:46.875Z,2.30
2022-11-22T21:36:16.442Z,2.00
2022-11-22T21:38:44.491Z,1.40
2022-11-22T21:44:03.299Z,2.20
2022-11-22T21:46:31.219Z,2.87
2022-11-22T21:48:59.498Z,3.90
2022-11-22T21:51:28.914Z,3.90
2022-11-22T21:53:58.426Z,3.33
2022-11-22T21:56:27.802Z,2.53
2022-11-22T21:58:55.352Z,2.27
2022-11-22T22:01:23.468Z,2.10
2022-11-22T22:03:51.580Z,3.77
2022-11-22T22:06:45.964Z,3.17
2022-11-22T22:09:14.704Z,3.50
2022-11-22T22:11:45.552Z,3.47
2022-11-22T22:14:13.506Z,4.40
2022-11-22T22:16:41.605Z,3.50
2022-11-22T22:19:10.922Z,3.30
2022-11-22T22:21:38.736Z,4.27
2022-11-22T22:24:11.689Z,3.37
2022-11-22T22:26:39.471Z,3.80
2022-11-22T22:29:07.643Z,4.13
2022-11-22T22:31:35.481Z,3.47
2022-11-22T22:34:03.928Z,3.27
2022-11-22T22:36:31.585Z,2.60
2022-11-22T22:39:00.074Z,2.90
2022-11-22T22:41:29.739Z,3.90
2022-11-22T22:43:58.796Z,2.60
2022-11-22T22:46:27.477Z,3.30
2022-11-22T22:48:56.099Z,3.27
2022-11-22T22:51:32.247Z,3.03
2022-11-22T22:54:02.733Z,2.70
2022-11-22T22:56:33.107Z,3.00
2022-11-22T22:59:01.642Z,2.73
2022-11-22T23:01:31.137Z,3.17
2022-11-22T23:04:00.523Z,3.50
2022-11-22T23:06:30.604Z,2.83
2022-11-22T23:08:59.547Z,2.57
2022-11-22T23:11:43.828Z,2.60
2022-11-22T23:14:14.136Z,2.90
2022-11-22T23:16:42.354Z,2.40
2022-11-22T23:19:10.500Z,2.83
2022-11-22T23:21:38.665Z,3.20
2022-11-22T23:24:08.548Z,2.07
2022-11-22T23:26:36.918Z,2.47
2022-11-22T23:29:05.058Z,2.90
2022-11-22T23:31:34.945Z,2.67
2022-11-22T23:34:04.061Z,2.50
2022-11-22T23:36:35.978Z,2.83
2022-11-22T23:39:06.971Z,2.30
2022-11-22T23:41:35.087Z,2.33
2022-11-22T23:44:02.747Z,3.67
2022-11-22T23:46:31.163Z,2.77
2022-11-22T23:49:01.823Z,2.40
2022-11-22T23:51:31.842Z,2.70
2022-11-22T23:54:01.411Z,2.60
2022-11-22T23:56:30.894Z,3.53
2022-11-22T23:58:59.807Z,2.40
